sensor_id;sensor_type;location;lat;lon;timestamp;P1;durP1;ratioP1;P2;durP2;ratioP2
56419;SDS011;42323;52.170;7.538;2023-05-07T00:00:15;7.75;;;5.85;;
56419;SDS011;42323;52.170;7.538;2023-05-07T00:02:44;8.70;;;6.22;;
56419;SDS011;42323;52.170;7.538;2023-05-07T00:05:11;8.23;;;5.83;;
56419;SDS011;42323;52.170;7.538;2023-05-07T00:07:38;8.73;;;5.90;;
56419;SDS011;42323;52.170;7.538;2023-05-07T00:10:05;9.95;;;6.22;;
56419;SDS011;42323;52.170;7.538;2023-05-07T00:12:32;9.18;;;6.43;;
56419;SDS011;42323;52.170;7.538;2023-05-07T00:15:03;9.15;;;6.85;;
56419;SDS011;42323;52.170;7.538;2023-05-07T00:17:30;8.05;;;6.10;;
56419;SDS011;42323;52.170;7.538;2023-05-07T00:19:57;8.80;;;6.10;;
56419;SDS011;42323;52.170;7.538;2023-05-07T00:22:23;9.97;;;6.73;;
56419;SDS011;42323;52.170;7.538;2023-05-07T00:24:50;11.02;;;6.55;;
56419;SDS011;42323;52.170;7.538;2023-05-07T00:27:16;10.20;;;6.97;;
56419;SDS011;42323;52.170;7.538;2023-05-07T00:29:43;10.35;;;6.80;;
56419;SDS011;42323;52.170;7.538;2023-05-07T00:32:09;9.27;;;6.75;;
56419;SDS011;42323;52.170;7.538;2023-05-07T00:34:36;8.50;;;6.60;;
56419;SDS011;42323;52.170;7.538;2023-05-07T00:37:03;9.90;;;6.72;;
56419;SDS011;42323;52.170;7.538;2023-05-07T00:39:31;10.63;;;6.75;;
56419;SDS011;42323;52.170;7.538;2023-05-07T00:41:58;11.30;;;7.00;;
56419;SDS011;42323;52.170;7.538;2023-05-07T00:44:25;9.57;;;7.07;;
56419;SDS011;42323;52.170;7.538;2023-05-07T00:46:51;9.55;;;7.07;;
56419;SDS011;42323;52.170;7.538;2023-05-07T00:49:19;11.50;;;7.32;;
56419;SDS011;42323;52.170;7.538;2023-05-07T00:51:46;9.63;;;7.22;;
56419;SDS011;42323;52.170;7.538;2023-05-07T00:54:13;11.73;;;7.85;;
56419;SDS011;42323;52.170;7.538;2023-05-07T00:56:39;12.02;;;8.23;;
56419;SDS011;42323;52.170;7.538;2023-05-07T00:59:06;12.00;;;7.70;;
56419;SDS011;42323;52.170;7.538;2023-05-07T01:01:33;13.10;;;8.60;;
56419;SDS011;42323;52.170;7.538;2023-05-07T01:03:59;13.48;;;8.65;;
56419;SDS011;42323;52.170;7.538;2023-05-07T01:06:26;13.07;;;8.60;;
56419;SDS011;42323;52.170;7.538;2023-05-07T01:08:55;11.93;;;7.90;;
56419;SDS011;42323;52.170;7.538;2023-05-07T01:11:23;11.30;;;8.27;;
56419;SDS011;42323;52.170;7.538;2023-05-07T01:13:51;13.70;;;8.90;;
56419;SDS011;42323;52.170;7.538;2023-05-07T01:16:18;13.48;;;9.27;;
56419;SDS011;42323;52.170;7.538;2023-05-07T01:18:45;13.13;;;9.60;;
56419;SDS011;42323;52.170;7.538;2023-05-07T01:21:14;15.30;;;10.07;;
56419;SDS011;42323;52.170;7.538;2023-05-07T01:23:42;14.13;;;9.90;;
56419;SDS011;42323;52.170;7.538;2023-05-07T01:26:11;15.25;;;10.23;;
56419;SDS011;42323;52.170;7.538;2023-05-07T01:28:37;13.98;;;10.25;;
56419;SDS011;42323;52.170;7.538;2023-05-07T01:31:04;15.82;;;11.20;;
56419;SDS011;42323;52.170;7.538;2023-05-07T01:33:33;16.85;;;10.90;;
56419;SDS011;42323;52.170;7.538;2023-05-07T01:36:02;14.88;;;10.98;;
56419;SDS011;42323;52.170;7.538;2023-05-07T01:38:32;15.55;;;11.05;;
56419;SDS011;42323;52.170;7.538;2023-05-07T01:40:59;15.87;;;10.70;;
56419;SDS011;42323;52.170;7.538;2023-05-07T01:43:26;16.00;;;11.25;;
56419;SDS011;42323;52.170;7.538;2023-05-07T01:45:52;15.80;;;11.10;;
56419;SDS011;42323;52.170;7.538;2023-05-07T01:48:19;14.27;;;10.87;;
56419;SDS011;42323;52.170;7.538;2023-05-07T01:50:47;16.48;;;11.30;;
56419;SDS011;42323;52.170;7.538;2023-05-07T01:53:14;15.80;;;10.77;;
56419;SDS011;42323;52.170;7.538;2023-05-07T01:55:41;16.08;;;11.05;;
56419;SDS011;42323;52.170;7.538;2023-05-07T01:58:07;17.30;;;11.80;;
56419;SDS011;42323;52.170;7.538;2023-05-07T02:00:34;17.67;;;11.95;;
56419;SDS011;42323;52.170;7.538;2023-05-07T02:03:01;16.35;;;11.43;;
56419;SDS011;42323;52.170;7.538;2023-05-07T02:05:27;18.23;;;11.98;;
56419;SDS011;42323;52.170;7.538;2023-05-07T02:07:54;18.08;;;11.60;;
56419;SDS011;42323;52.170;7.538;2023-05-07T02:10:22;16.55;;;10.95;;
56419;SDS011;42323;52.170;7.538;2023-05-07T02:12:49;15.82;;;11.18;;
56419;SDS011;42323;52.170;7.538;2023-05-07T02:15:15;18.20;;;11.85;;
56419;SDS011;42323;52.170;7.538;2023-05-07T02:20:29;20.17;;;12.37;;
56419;SDS011;42323;52.170;7.538;2023-05-07T02:22:55;16.98;;;11.85;;
56419;SDS011;42323;52.170;7.538;2023-05-07T02:25:22;16.88;;;11.38;;
56419;SDS011;42323;52.170;7.538;2023-05-07T02:27:49;16.90;;;11.60;;
56419;SDS011;42323;52.170;7.538;2023-05-07T02:30:15;18.80;;;12.10;;
56419;SDS011;42323;52.170;7.538;2023-05-07T02:32:42;16.75;;;11.88;;
56419;SDS011;42323;52.170;7.538;2023-05-07T02:35:09;17.67;;;12.02;;
56419;SDS011;42323;52.170;7.538;2023-05-07T02:37:35;18.27;;;12.65;;
56419;SDS011;42323;52.170;7.538;2023-05-07T02:40:02;16.98;;;11.15;;
56419;SDS011;42323;52.170;7.538;2023-05-07T02:42:30;17.17;;;12.40;;
56419;SDS011;42323;52.170;7.538;2023-05-07T02:44:57;15.95;;;11.70;;
56419;SDS011;42323;52.170;7.538;2023-05-07T02:47:24;16.65;;;12.27;;
56419;SDS011;42323;52.170;7.538;2023-05-07T02:49:53;18.02;;;12.23;;
56419;SDS011;42323;52.170;7.538;2023-05-07T02:52:20;18.20;;;12.00;;
56419;SDS011;42323;52.170;7.538;2023-05-07T02:54:47;17.42;;;11.88;;
56419;SDS011;42323;52.170;7.538;2023-05-07T02:57:14;17.92;;;12.00;;
56419;SDS011;42323;52.170;7.538;2023-05-07T02:59:41;17.67;;;11.70;;
56419;SDS011;42323;52.170;7.538;2023-05-07T03:02:08;17.83;;;12.35;;
56419;SDS011;42323;52.170;7.538;2023-05-07T03:04:35;18.15;;;12.48;;
56419;SDS011;42323;52.170;7.538;2023-05-07T03:07:02;18.63;;;12.27;;
56419;SDS011;42323;52.170;7.538;2023-05-07T03:09:28;18.48;;;12.63;;
56419;SDS011;42323;52.170;7.538;2023-05-07T03:11:55;18.70;;;11.93;;
56419;SDS011;42323;52.170;7.538;2023-05-07T03:14:22;17.75;;;11.90;;
56419;SDS011;42323;52.170;7.538;2023-05-07T03:16:49;19.70;;;12.40;;
56419;SDS011;42323;52.170;7.538;2023-05-07T03:19:16;19.88;;;12.55;;
56419;SDS011;42323;52.170;7.538;2023-05-07T03:21:42;19.40;;;12.57;;
56419;SDS011;42323;52.170;7.538;2023-05-07T03:24:09;18.42;;;11.93;;
56419;SDS011;42323;52.170;7.538;2023-05-07T03:26:35;17.67;;;11.93;;
56419;SDS011;42323;52.170;7.538;2023-05-07T03:29:02;17.70;;;12.05;;
56419;SDS011;42323;52.170;7.538;2023-05-07T03:31:29;19.20;;;12.37;;
56419;SDS011;42323;52.170;7.538;2023-05-07T03:33:56;17.42;;;11.90;;
56419;SDS011;42323;52.170;7.538;2023-05-07T03:36:23;17.02;;;11.90;;
56419;SDS011;42323;52.170;7.538;2023-05-07T03:38:52;19.77;;;12.98;;
56419;SDS011;42323;52.170;7.538;2023-05-07T03:41:19;20.17;;;12.80;;
56419;SDS011;42323;52.170;7.538;2023-05-07T03:43:46;17.60;;;11.88;;
56419;SDS011;42323;52.170;7.538;2023-05-07T03:46:12;20.58;;;12.75;;
56419;SDS011;42323;52.170;7.538;2023-05-07T03:48:39;19.73;;;12.30;;
56419;SDS011;42323;52.170;7.538;2023-05-07T03:51:05;18.13;;;12.47;;
56419;SDS011;42323;52.170;7.538;2023-05-07T03:53:32;19.38;;;12.27;;
56419;SDS011;42323;52.170;7.538;2023-05-07T03:55:59;18.48;;;12.65;;
56419;SDS011;42323;52.170;7.538;2023-05-07T03:58:25;20.67;;;13.30;;
56419;SDS011;42323;52.170;7.538;2023-05-07T04:00:52;20.20;;;13.55;;
56419;SDS011;42323;52.170;7.538;2023-05-07T04:03:18;19.00;;;12.48;;
56419;SDS011;42323;52.170;7.538;2023-05-07T04:05:45;20.92;;;12.70;;
56419;SDS011;42323;52.170;7.538;2023-05-07T04:08:11;21.38;;;13.25;;
56419;SDS011;42323;52.170;7.538;2023-05-07T04:10:38;21.77;;;12.85;;
56419;SDS011;42323;52.170;7.538;2023-05-07T04:13:05;19.73;;;12.90;;
56419;SDS011;42323;52.170;7.538;2023-05-07T04:15:31;19.63;;;12.80;;
56419;SDS011;42323;52.170;7.538;2023-05-07T04:17:58;18.98;;;12.52;;
56419;SDS011;42323;52.170;7.538;2023-05-07T04:20:24;23.70;;;14.00;;
56419;SDS011;42323;52.170;7.538;2023-05-07T04:22:51;20.15;;;12.93;;
56419;SDS011;42323;52.170;7.538;2023-05-07T04:25:17;19.23;;;12.82;;
56419;SDS011;42323;52.170;7.538;2023-05-07T04:27:44;19.57;;;13.40;;
56419;SDS011;42323;52.170;7.538;2023-05-07T04:30:10;20.98;;;13.40;;
56419;SDS011;42323;52.170;7.538;2023-05-07T04:32:38;18.50;;;12.50;;
56419;SDS011;42323;52.170;7.538;2023-05-07T04:35:05;19.58;;;13.15;;
56419;SDS011;42323;52.170;7.538;2023-05-07T04:37:32;20.33;;;13.50;;
56419;SDS011;42323;52.170;7.538;2023-05-07T04:39:59;22.43;;;13.90;;
56419;SDS011;42323;52.170;7.538;2023-05-07T04:42:26;21.77;;;13.43;;
56419;SDS011;42323;52.170;7.538;2023-05-07T04:44:53;19.80;;;12.95;;
56419;SDS011;42323;52.170;7.538;2023-05-07T04:47:20;19.42;;;12.93;;
56419;SDS011;42323;52.170;7.538;2023-05-07T04:49:46;19.45;;;12.90;;
56419;SDS011;42323;52.170;7.538;2023-05-07T04:52:13;21.50;;;13.48;;
56419;SDS011;42323;52.170;7.538;2023-05-07T04:54:39;19.83;;;12.70;;
56419;SDS011;42323;52.170;7.538;2023-05-07T04:57:06;18.90;;;12.40;;
56419;SDS011;42323;52.170;7.538;2023-05-07T04:59:33;19.52;;;12.57;;
56419;SDS011;42323;52.170;7.538;2023-05-07T05:01:59;20.10;;;12.88;;
56419;SDS011;42323;52.170;7.538;2023-05-07T05:04:26;19.05;;;12.45;;
56419;SDS011;42323;52.170;7.538;2023-05-07T05:06:53;19.52;;;12.77;;
56419;SDS011;42323;52.170;7.538;2023-05-07T05:09:19;20.20;;;12.82;;
56419;SDS011;42323;52.170;7.538;2023-05-07T05:11:46;17.40;;;12.40;;
56419;SDS011;42323;52.170;7.538;2023-05-07T05:14:12;20.45;;;12.98;;
56419;SDS011;42323;52.170;7.538;2023-05-07T05:16:39;19.00;;;12.35;;
56419;SDS011;42323;52.170;7.538;2023-05-07T05:19:06;19.45;;;12.32;;
56419;SDS011;42323;52.170;7.538;2023-05-07T05:21:32;17.23;;;12.13;;
56419;SDS011;42323;52.170;7.538;2023-05-07T05:23:59;18.52;;;12.40;;
56419;SDS011;42323;52.170;7.538;2023-05-07T05:26:26;19.38;;;12.38;;
56419;SDS011;42323;52.170;7.538;2023-05-07T05:28:52;19.88;;;13.25;;
56419;SDS011;42323;52.170;7.538;2023-05-07T05:31:19;17.63;;;12.07;;
56419;SDS011;42323;52.170;7.538;2023-05-07T05:33:45;19.75;;;12.50;;
56419;SDS011;42323;52.170;7.538;2023-05-07T05:36:12;18.03;;;11.93;;
56419;SDS011;42323;52.170;7.538;2023-05-07T05:38:39;19.85;;;12.18;;
56419;SDS011;42323;52.170;7.538;2023-05-07T05:41:06;18.15;;;12.43;;
56419;SDS011;42323;52.170;7.538;2023-05-07T05:43:33;16.87;;;11.03;;
56419;SDS011;42323;52.170;7.538;2023-05-07T05:45:59;19.42;;;12.15;;
56419;SDS011;42323;52.170;7.538;2023-05-07T05:48:28;16.47;;;11.60;;
56419;SDS011;42323;52.170;7.538;2023-05-07T05:50:55;18.00;;;11.77;;
56419;SDS011;42323;52.170;7.538;2023-05-07T05:53:22;17.77;;;11.43;;
56419;SDS011;42323;52.170;7.538;2023-05-07T05:55:49;16.92;;;11.63;;
56419;SDS011;42323;52.170;7.538;2023-05-07T05:58:15;18.23;;;11.38;;
56419;SDS011;42323;52.170;7.538;2023-05-07T06:00:42;16.67;;;11.05;;
56419;SDS011;42323;52.170;7.538;2023-05-07T06:03:08;16.98;;;11.77;;
56419;SDS011;42323;52.170;7.538;2023-05-07T06:05:36;17.15;;;11.38;;
56419;SDS011;42323;52.170;7.538;2023-05-07T06:08:03;15.97;;;11.37;;
56419;SDS011;42323;52.170;7.538;2023-05-07T06:10:29;17.00;;;11.45;;
56419;SDS011;42323;52.170;7.538;2023-05-07T06:12:56;16.08;;;11.15;;
56419;SDS011;42323;52.170;7.538;2023-05-07T06:15:23;18.17;;;12.50;;
56419;SDS011;42323;52.170;7.538;2023-05-07T06:17:49;16.05;;;11.15;;
56419;SDS011;42323;52.170;7.538;2023-05-07T06:20:16;16.38;;;11.25;;
56419;SDS011;42323;52.170;7.538;2023-05-07T06:22:43;17.02;;;11.57;;
56419;SDS011;42323;52.170;7.538;2023-05-07T06:25:09;17.00;;;10.90;;
56419;SDS011;42323;52.170;7.538;2023-05-07T06:27:36;16.75;;;10.93;;
56419;SDS011;42323;52.170;7.538;2023-05-07T06:30:02;17.27;;;11.43;;
56419;SDS011;42323;52.170;7.538;2023-05-07T06:32:29;17.10;;;11.45;;
56419;SDS011;42323;52.170;7.538;2023-05-07T06:34:55;17.73;;;11.65;;
56419;SDS011;42323;52.170;7.538;2023-05-07T06:37:22;15.70;;;11.32;;
56419;SDS011;42323;52.170;7.538;2023-05-07T06:39:49;17.08;;;11.60;;
56419;SDS011;42323;52.170;7.538;2023-05-07T06:42:15;16.10;;;10.50;;
56419;SDS011;42323;52.170;7.538;2023-05-07T06:44:42;17.00;;;10.98;;
56419;SDS011;42323;52.170;7.538;2023-05-07T06:47:08;16.38;;;11.32;;
56419;SDS011;42323;52.170;7.538;2023-05-07T06:49:35;16.15;;;10.57;;
56419;SDS011;42323;52.170;7.538;2023-05-07T06:52:02;16.80;;;11.05;;
56419;SDS011;42323;52.170;7.538;2023-05-07T06:54:28;15.88;;;10.85;;
56419;SDS011;42323;52.170;7.538;2023-05-07T06:56:55;17.97;;;11.27;;
56419;SDS011;42323;52.170;7.538;2023-05-07T06:59:21;15.98;;;10.38;;
56419;SDS011;42323;52.170;7.538;2023-05-07T07:01:48;16.25;;;11.00;;
56419;SDS011;42323;52.170;7.538;2023-05-07T07:04:15;16.40;;;11.50;;
56419;SDS011;42323;52.170;7.538;2023-05-07T07:06:41;16.23;;;10.95;;
56419;SDS011;42323;52.170;7.538;2023-05-07T07:09:08;15.30;;;10.43;;
56419;SDS011;42323;52.170;7.538;2023-05-07T07:11:34;16.03;;;11.07;;
56419;SDS011;42323;52.170;7.538;2023-05-07T07:14:01;17.65;;;11.00;;
56419;SDS011;42323;52.170;7.538;2023-05-07T07:16:28;16.38;;;10.75;;
56419;SDS011;42323;52.170;7.538;2023-05-07T07:18:54;13.95;;;10.13;;
56419;SDS011;42323;52.170;7.538;2023-05-07T07:21:21;13.68;;;9.82;;
56419;SDS011;42323;52.170;7.538;2023-05-07T07:23:47;15.75;;;11.18;;
56419;SDS011;42323;52.170;7.538;2023-05-07T07:26:14;17.90;;;11.80;;
56419;SDS011;42323;52.170;7.538;2023-05-07T07:28:43;15.82;;;10.75;;
56419;SDS011;42323;52.170;7.538;2023-05-07T07:31:11;14.77;;;10.65;;
56419;SDS011;42323;52.170;7.538;2023-05-07T07:33:38;15.23;;;10.48;;
56419;SDS011;42323;52.170;7.538;2023-05-07T07:36:05;16.05;;;11.20;;
56419;SDS011;42323;52.170;7.538;2023-05-07T07:38:35;15.65;;;10.85;;
56419;SDS011;42323;52.170;7.538;2023-05-07T07:41:02;14.47;;;10.70;;
56419;SDS011;42323;52.170;7.538;2023-05-07T07:43:29;16.40;;;10.98;;
56419;SDS011;42323;52.170;7.538;2023-05-07T07:45:55;14.10;;;10.57;;
56419;SDS011;42323;52.170;7.538;2023-05-07T07:48:22;15.05;;;10.52;;
56419;SDS011;42323;52.170;7.538;2023-05-07T07:50:49;16.67;;;10.98;;
56419;SDS011;42323;52.170;7.538;2023-05-07T07:53:17;15.20;;;10.15;;
56419;SDS011;42323;52.170;7.538;2023-05-07T07:55:44;15.15;;;10.57;;
56419;SDS011;42323;52.170;7.538;2023-05-07T07:58:11;15.40;;;10.70;;
56419;SDS011;42323;52.170;7.538;2023-05-07T08:00:37;15.75;;;10.95;;
56419;SDS011;42323;52.170;7.538;2023-05-07T08:03:04;15.88;;;11.00;;
56419;SDS011;42323;52.170;7.538;2023-05-07T08:05:31;14.70;;;10.35;;
56419;SDS011;42323;52.170;7.538;2023-05-07T08:07:58;15.70;;;10.38;;
56419;SDS011;42323;52.170;7.538;2023-05-07T08:10:24;17.38;;;10.85;;
56419;SDS011;42323;52.170;7.538;2023-05-07T08:12:51;15.05;;;10.50;;
56419;SDS011;42323;52.170;7.538;2023-05-07T08:15:17;16.20;;;11.10;;
56419;SDS011;42323;52.170;7.538;2023-05-07T08:17:44;15.63;;;10.35;;
56419;SDS011;42323;52.170;7.538;2023-05-07T08:20:11;14.35;;;9.82;;
56419;SDS011;42323;52.170;7.538;2023-05-07T08:22:37;13.65;;;9.80;;
56419;SDS011;42323;52.170;7.538;2023-05-07T08:25:04;15.00;;;9.90;;
56419;SDS011;42323;52.170;7.538;2023-05-07T08:27:31;16.87;;;10.93;;
56419;SDS011;42323;52.170;7.538;2023-05-07T08:29:57;14.35;;;10.48;;
56419;SDS011;42323;52.170;7.538;2023-05-07T08:32:24;14.85;;;10.25;;
56419;SDS011;42323;52.170;7.538;2023-05-07T08:34:50;16.63;;;11.05;;
56419;SDS011;42323;52.170;7.538;2023-05-07T08:37:17;14.50;;;10.13;;
56419;SDS011;42323;52.170;7.538;2023-05-07T08:39:44;13.90;;;10.07;;
56419;SDS011;42323;52.170;7.538;2023-05-07T08:42:11;15.02;;;10.38;;
56419;SDS011;42323;52.170;7.538;2023-05-07T08:44:38;17.25;;;10.90;;
56419;SDS011;42323;52.170;7.538;2023-05-07T08:47:06;15.38;;;10.73;;
56419;SDS011;42323;52.170;7.538;2023-05-07T08:49:33;13.27;;;9.75;;
56419;SDS011;42323;52.170;7.538;2023-05-07T08:52:01;13.50;;;9.32;;
56419;SDS011;42323;52.170;7.538;2023-05-07T08:54:28;14.55;;;9.88;;
56419;SDS011;42323;52.170;7.538;2023-05-07T08:56:56;14.17;;;10.07;;
56419;SDS011;42323;52.170;7.538;2023-05-07T08:59:25;12.87;;;9.70;;
56419;SDS011;42323;52.170;7.538;2023-05-07T09:01:52;14.43;;;10.50;;
56419;SDS011;42323;52.170;7.538;2023-05-07T09:04:18;14.60;;;10.10;;
56419;SDS011;42323;52.170;7.538;2023-05-07T09:06:45;12.85;;;9.27;;
56419;SDS011;42323;52.170;7.538;2023-05-07T09:09:14;13.25;;;9.35;;
56419;SDS011;42323;52.170;7.538;2023-05-07T09:11:43;13.48;;;9.68;;
56419;SDS011;42323;52.170;7.538;2023-05-07T09:14:10;15.15;;;9.70;;
56419;SDS011;42323;52.170;7.538;2023-05-07T09:16:40;14.95;;;10.10;;
56419;SDS011;42323;52.170;7.538;2023-05-07T09:19:07;13.82;;;9.90;;
56419;SDS011;42323;52.170;7.538;2023-05-07T09:21:34;14.30;;;9.50;;
56419;SDS011;42323;52.170;7.538;2023-05-07T09:24:01;12.98;;;10.02;;
56419;SDS011;42323;52.170;7.538;2023-05-07T09:26:28;12.90;;;9.75;;
56419;SDS011;42323;52.170;7.538;2023-05-07T09:28:54;12.88;;;9.13;;
56419;SDS011;42323;52.170;7.538;2023-05-07T09:31:21;13.68;;;9.45;;
56419;SDS011;42323;52.170;7.538;2023-05-07T09:33:49;13.55;;;9.75;;
56419;SDS011;42323;52.170;7.538;2023-05-07T09:36:16;12.95;;;9.27;;
56419;SDS011;42323;52.170;7.538;2023-05-07T09:38:43;12.60;;;9.03;;
56419;SDS011;42323;52.170;7.538;2023-05-07T09:41:10;15.63;;;9.47;;
56419;SDS011;42323;52.170;7.538;2023-05-07T09:43:39;14.60;;;10.07;;
56419;SDS011;42323;52.170;7.538;2023-05-07T09:46:07;13.13;;;9.30;;
56419;SDS011;42323;52.170;7.538;2023-05-07T09:48:39;13.23;;;9.23;;
56419;SDS011;42323;52.170;7.538;2023-05-07T09:51:10;12.23;;;8.98;;
56419;SDS011;42323;52.170;7.538;2023-05-07T09:53:43;13.02;;;8.75;;
56419;SDS011;42323;52.170;7.538;2023-05-07T09:56:13;13.77;;;9.60;;
56419;SDS011;42323;52.170;7.538;2023-05-07T09:58:41;12.25;;;9.65;;
56419;SDS011;42323;52.170;7.538;2023-05-07T10:01:10;12.45;;;9.10;;
56419;SDS011;42323;52.170;7.538;2023-05-07T10:03:41;13.10;;;9.02;;
56419;SDS011;42323;52.170;7.538;2023-05-07T10:06:13;12.23;;;8.07;;
56419;SDS011;42323;52.170;7.538;2023-05-07T10:08:40;10.55;;;7.70;;
56419;SDS011;42323;52.170;7.538;2023-05-07T10:11:09;12.25;;;8.65;;
56419;SDS011;42323;52.170;7.538;2023-05-07T10:13:36;10.93;;;8.07;;
56419;SDS011;42323;52.170;7.538;2023-05-07T10:16:04;11.98;;;8.30;;
56419;SDS011;42323;52.170;7.538;2023-05-07T10:18:32;10.70;;;8.60;;
56419;SDS011;42323;52.170;7.538;2023-05-07T10:21:11;11.27;;;8.30;;
56419;SDS011;42323;52.170;7.538;2023-05-07T10:23:44;10.85;;;7.50;;
56419;SDS011;42323;52.170;7.538;2023-05-07T10:26:11;10.83;;;7.90;;
56419;SDS011;42323;52.170;7.538;2023-05-07T10:28:41;9.43;;;7.22;;
56419;SDS011;42323;52.170;7.538;2023-05-07T10:31:58;9.80;;;7.70;;
56419;SDS011;42323;52.170;7.538;2023-05-07T10:34:00;9.38;;;7.75;;
56419;SDS011;42323;52.170;7.538;2023-05-07T10:36:34;9.98;;;7.22;;
56419;SDS011;42323;52.170;7.538;2023-05-07T10:39:03;8.27;;;6.88;;
56419;SDS011;42323;52.170;7.538;2023-05-07T10:41:31;8.88;;;7.22;;
56419;SDS011;42323;52.170;7.538;2023-05-07T10:43:58;9.63;;;7.65;;
56419;SDS011;42323;52.170;7.538;2023-05-07T10:46:27;9.27;;;7.43;;
56419;SDS011;42323;52.170;7.538;2023-05-07T10:51:27;8.50;;;6.57;;
56419;SDS011;42323;52.170;7.538;2023-05-07T10:56:36;8.45;;;6.85;;
56419;SDS011;42323;52.170;7.538;2023-05-07T11:04:29;8.20;;;6.45;;
56419;SDS011;42323;52.170;7.538;2023-05-07T11:15:10;8.55;;;5.32;;
56419;SDS011;42323;52.170;7.538;2023-05-07T11:17:54;6.43;;;5.10;;
56419;SDS011;42323;52.170;7.538;2023-05-07T11:28:31;5.50;;;4.90;;
56419;SDS011;42323;52.170;7.538;2023-05-07T11:31:03;6.43;;;5.20;;
56419;SDS011;42323;52.170;7.538;2023-05-07T11:33:30;7.00;;;4.97;;
56419;SDS011;42323;52.170;7.538;2023-05-07T11:35:57;5.82;;;4.47;;
56419;SDS011;42323;52.170;7.538;2023-05-07T11:38:26;5.60;;;4.32;;
56419;SDS011;42323;52.170;7.538;2023-05-07T11:40:53;5.40;;;4.40;;
56419;SDS011;42323;52.170;7.538;2023-05-07T11:43:21;6.60;;;4.90;;
56419;SDS011;42323;52.170;7.538;2023-05-07T11:45:48;6.40;;;4.22;;
56419;SDS011;42323;52.170;7.538;2023-05-07T11:48:15;7.70;;;4.72;;
56419;SDS011;42323;52.170;7.538;2023-05-07T11:53:19;6.45;;;4.82;;
56419;SDS011;42323;52.170;7.538;2023-05-07T11:55:47;5.32;;;4.57;;
56419;SDS011;42323;52.170;7.538;2023-05-07T11:58:20;6.70;;;5.07;;
56419;SDS011;42323;52.170;7.538;2023-05-07T12:00:48;6.38;;;5.03;;
56419;SDS011;42323;52.170;7.538;2023-05-07T12:03:18;5.95;;;3.70;;
56419;SDS011;42323;52.170;7.538;2023-05-07T12:05:45;6.03;;;4.25;;
56419;SDS011;42323;52.170;7.538;2023-05-07T12:08:15;5.30;;;4.30;;
56419;SDS011;42323;52.170;7.538;2023-05-07T12:10:42;6.55;;;4.10;;
56419;SDS011;42323;52.170;7.538;2023-05-07T12:15:43;3.95;;;3.22;;
56419;SDS011;42323;52.170;7.538;2023-05-07T12:18:13;3.80;;;3.13;;
56419;SDS011;42323;52.170;7.538;2023-05-07T12:20:40;4.65;;;3.85;;
56419;SDS011;42323;52.170;7.538;2023-05-07T12:23:07;4.07;;;3.63;;
56419;SDS011;42323;52.170;7.538;2023-05-07T12:25:37;3.92;;;3.05;;
56419;SDS011;42323;52.170;7.538;2023-05-07T12:28:04;4.68;;;3.63;;
56419;SDS011;42323;52.170;7.538;2023-05-07T12:30:32;3.95;;;3.13;;
56419;SDS011;42323;52.170;7.538;2023-05-07T12:33:03;5.03;;;3.30;;
56419;SDS011;42323;52.170;7.538;2023-05-07T12:35:30;3.35;;;3.00;;
56419;SDS011;42323;52.170;7.538;2023-05-07T12:37:58;3.75;;;3.00;;
56419;SDS011;42323;52.170;7.538;2023-05-07T12:40:39;4.57;;;3.80;;
56419;SDS011;42323;52.170;7.538;2023-05-07T12:43:15;4.88;;;2.80;;
56419;SDS011;42323;52.170;7.538;2023-05-07T12:45:45;3.88;;;3.15;;
56419;SDS011;42323;52.170;7.538;2023-05-07T12:48:14;4.22;;;3.65;;
56419;SDS011;42323;52.170;7.538;2023-05-07T12:50:40;4.75;;;3.42;;
56419;SDS011;42323;52.170;7.538;2023-05-07T12:53:08;3.70;;;2.85;;
56419;SDS011;42323;52.170;7.538;2023-05-07T12:55:40;5.70;;;3.10;;
56419;SDS011;42323;52.170;7.538;2023-05-07T12:58:13;4.75;;;2.72;;
56419;SDS011;42323;52.170;7.538;2023-05-07T13:00:44;2.95;;;2.42;;
56419;SDS011;42323;52.170;7.538;2023-05-07T13:03:20;3.28;;;2.55;;
56419;SDS011;42323;52.170;7.538;2023-05-07T13:05:48;2.80;;;2.35;;
56419;SDS011;42323;52.170;7.538;2023-05-07T13:08:34;4.35;;;2.67;;
56419;SDS011;42323;52.170;7.538;2023-05-07T13:11:04;3.35;;;2.45;;
56419;SDS011;42323;52.170;7.538;2023-05-07T13:13:31;2.97;;;2.60;;
56419;SDS011;42323;52.170;7.538;2023-05-07T13:15:59;3.38;;;2.47;;
56419;SDS011;42323;52.170;7.538;2023-05-07T13:18:26;4.32;;;2.92;;
56419;SDS011;42323;52.170;7.538;2023-05-07T13:20:55;3.25;;;2.67;;
56419;SDS011;42323;52.170;7.538;2023-05-07T13:23:22;3.67;;;2.80;;
56419;SDS011;42323;52.170;7.538;2023-05-07T13:25:49;2.75;;;2.38;;
56419;SDS011;42323;52.170;7.538;2023-05-07T13:28:16;2.80;;;2.50;;
56419;SDS011;42323;52.170;7.538;2023-05-07T13:30:43;4.82;;;2.22;;
56419;SDS011;42323;52.170;7.538;2023-05-07T13:33:09;3.22;;;2.65;;
56419;SDS011;42323;52.170;7.538;2023-05-07T13:35:36;3.25;;;2.58;;
56419;SDS011;42323;52.170;7.538;2023-05-07T13:38:03;4.25;;;2.40;;
56419;SDS011;42323;52.170;7.538;2023-05-07T13:40:30;4.43;;;2.88;;
56419;SDS011;42323;52.170;7.538;2023-05-07T13:42:58;3.30;;;2.78;;
56419;SDS011;42323;52.170;7.538;2023-05-07T13:45:25;2.95;;;2.47;;
56419;SDS011;42323;52.170;7.538;2023-05-07T13:47:53;3.25;;;2.70;;
56419;SDS011;42323;52.170;7.538;2023-05-07T13:50:19;7.72;;;3.25;;
56419;SDS011;42323;52.170;7.538;2023-05-07T13:52:46;3.80;;;3.00;;
56419;SDS011;42323;52.170;7.538;2023-05-07T13:55:20;2.90;;;2.42;;
56419;SDS011;42323;52.170;7.538;2023-05-07T13:57:47;3.50;;;2.90;;
56419;SDS011;42323;52.170;7.538;2023-05-07T14:00:21;3.47;;;3.00;;
56419;SDS011;42323;52.170;7.538;2023-05-07T14:02:47;3.97;;;3.00;;
56419;SDS011;42323;52.170;7.538;2023-05-07T14:05:14;4.18;;;2.97;;
56419;SDS011;42323;52.170;7.538;2023-05-07T14:07:40;3.75;;;3.08;;
56419;SDS011;42323;52.170;7.538;2023-05-07T14:10:07;3.90;;;2.63;;
56419;SDS011;42323;52.170;7.538;2023-05-07T14:12:34;4.28;;;2.92;;
56419;SDS011;42323;52.170;7.538;2023-05-07T14:15:01;4.15;;;3.20;;
56419;SDS011;42323;52.170;7.538;2023-05-07T14:17:27;5.35;;;3.05;;
56419;SDS011;42323;52.170;7.538;2023-05-07T14:19:54;3.85;;;2.90;;
56419;SDS011;42323;52.170;7.538;2023-05-07T14:22:21;5.55;;;3.50;;
56419;SDS011;42323;52.170;7.538;2023-05-07T14:24:49;3.85;;;2.80;;
56419;SDS011;42323;52.170;7.538;2023-05-07T14:27:30;4.30;;;3.38;;
56419;SDS011;42323;52.170;7.538;2023-05-07T14:29:57;4.20;;;3.55;;
56419;SDS011;42323;52.170;7.538;2023-05-07T14:32:23;3.72;;;2.90;;
56419;SDS011;42323;52.170;7.538;2023-05-07T14:34:50;3.90;;;3.10;;
56419;SDS011;42323;52.170;7.538;2023-05-07T14:37:16;4.07;;;2.83;;
56419;SDS011;42323;52.170;7.538;2023-05-07T14:39:46;4.88;;;3.63;;
56419;SDS011;42323;52.170;7.538;2023-05-07T14:42:15;4.35;;;2.95;;
56419;SDS011;42323;52.170;7.538;2023-05-07T14:44:41;3.70;;;3.30;;
56419;SDS011;42323;52.170;7.538;2023-05-07T14:47:08;4.20;;;2.90;;
56419;SDS011;42323;52.170;7.538;2023-05-07T14:49:35;4.15;;;3.03;;
56419;SDS011;42323;52.170;7.538;2023-05-07T14:52:02;3.92;;;2.80;;
56419;SDS011;42323;52.170;7.538;2023-05-07T14:54:28;3.75;;;3.03;;
56419;SDS011;42323;52.170;7.538;2023-05-07T14:56:55;3.80;;;3.20;;
56419;SDS011;42323;52.170;7.538;2023-05-07T14:59:22;4.55;;;3.17;;
56419;SDS011;42323;52.170;7.538;2023-05-07T15:01:51;3.97;;;2.85;;
56419;SDS011;42323;52.170;7.538;2023-05-07T15:04:17;4.22;;;3.00;;
56419;SDS011;42323;52.170;7.538;2023-05-07T15:06:44;4.50;;;2.65;;